Terminal Aerodrome Forecast
Issued by NWS Pittsburgh, PA

Home | Current Version | Previous Version | Text Only | Print | Product List | Glossary On
Versions: 1 2 3 4 5 6 7 8 9 10 11 12 13 14 15 16 17 18 19 20 21 22 23 24 25 26 27 28 29 30 31 32 33
000
FTUS41 KPBZ 212300
TAFPIT
TAF
KPIT 212320Z 2200/2306 21005KT P6SM SCT015 BKN250
      TEMPO 2200/2202 BKN015
     FM220600 VRB03KT 5SM BR BKN015
     FM221400 VRB05KT 6SM -RA BKN035
     FM230100 VRB05KT P6SM BKN035=

USA.gov is the U.S. government's official web portal to all federal, state and local government web resources and services.